Date,TemperatureHighF,TemperatureAvgF,TemperatureLowF,DewpointHighF,DewpointAvgF,DewpointLowF,HumidityHigh,HumidityAvg,HumidityLow,PressureMaxIn,PressureMinIn,WindSpeedMaxMPH,WindSpeedAvgMPH,GustSpeedMaxMPH,PrecipitationSumIn
2013-1-1,58.2,35.7,28.6,38.9,25.2,21.2,89,67,46,30.38,29.81,9,1,12,0.00
2013-1-2,50.1,37.5,34.0,27.1,20.5,17.9,54,50,39,29.81,29.67,19,5,22,0.00
2013-1-3,45.4,37.4,32.4,32.6,22.3,16.2,82,55,45,30.17,29.63,19,2,19,0.02
2013-1-4,54.7,40.7,35.8,47.4,36.0,31.7,87,83,72,30.25,30.06,2,0,3,0.04
2013-1-5,42.2,37.4,34.0,35.6,32.6,29.4,86,83,75,30.13,30.05,7,0,7,0.02
2013-1-6,46.1,39.5,35.9,42.7,36.0,31.8,89,87,85,30.14,29.98,2,0,2,0.14
2013-1-7,49.9,46.1,39.3,46.8,43.0,36.3,90,89,87,30.14,29.89,15,2,15,0.25
2013-1-8,53.9,48.1,42.0,48.6,43.9,39.0,91,86,80,30.13,29.83,19,2,19,0.14
2013-1-9,48.1,38.7,31.9,42.4,35.3,29.0,89,88,78,29.88,29.63,15,2,15,0.37
2013-1-10,37.5,33.8,32.1,34.6,30.9,29.2,90,89,89,30.00,29.88,7,0,7,0.14
2013-1-11,40.0,31.8,26.0,35.6,28.6,22.9,90,88,82,30.20,30.00,4,0,4,0.08
2013-1-12,38.8,26.5,21.1,31.4,22.3,17.6,88,84,74,30.28,30.18,5,0,5,0.00
2013-1-13,36.7,24.5,16.9,30.6,20.5,13.1,88,85,75,30.37,30.27,5,0,5,0.02
2013-1-14,32.8,27.6,20.5,29.4,24.0,17.2,88,86,83,30.45,30.36,4,0,4,0.00
2013-1-15,37.3,34.0,32.3,34.4,31.0,29.4,90,89,88,30.54,30.45,2,0,2,0.04
2013-1-16,36.7,32.4,28.5,33.7,29.5,25.5,90,89,88,30.53,30.37,2,0,2,0.00
2013-1-17,42.8,30.5,22.6,39.7,27.5,19.9,90,89,86,30.37,30.20,2,0,2,0.02
2013-1-18,49.8,34.7,27.6,46.2,31.4,24.7,91,88,79,30.21,30.15,2,0,2,0.00
2013-1-19,49.4,34.1,27.8,39.6,28.4,24.1,87,80,66,30.23,30.16,4,0,4,0.00
2013-1-20,46.9,30.3,22.8,40.4,26.2,19.5,89,85,70,30.23,30.12,4,0,4,0.00
2013-1-21,48.0,31.7,24.0,40.3,27.0,20.7,88,83,66,30.16,30.04,4,0,4,0.03
2013-1-22,48.5,32.4,23.9,38.9,27.0,20.3,87,81,67,30.05,29.82,3,0,3,0.00
2013-1-23,39.3,34.1,30.9,34.5,29.5,25.5,89,83,76,30.10,29.78,7,0,7,0.24
2013-1-24,46.0,39.2,32.3,43.0,36.3,29.4,91,89,89,30.13,30.01,5,0,5,0.31
2013-1-25,48.9,45.4,38.3,46.3,42.9,35.7,91,91,90,30.05,29.88,12,0,12,0.53
2013-1-26,45.6,38.5,35.7,43.1,36.0,33.2,91,91,90,30.00,29.85,12,1,12,0.36
2013-1-27,42.4,37.5,36.3,39.5,34.9,33.6,91,90,89,30.06,29.95,8,1,8,0.19
2013-1-28,40.4,38.6,36.3,37.9,36.1,33.6,91,91,90,30.11,29.98,17,3,17,0.83
2013-1-29,43.7,41.8,39.0,41.2,39.3,36.5,92,91,91,30.38,30.11,12,3,12,0.74
2013-1-30,46.0,43.8,40.8,43.8,41.4,38.3,92,92,91,30.37,30.33,12,2,12,0.49
2013-1-31,51.6,46.0,43.1,48.7,43.3,40.6,92,90,87,30.37,30.25,8,0,8,0.04
2013-2-1,57.2,45.2,38.8,51.1,40.9,36.1,90,85,68,30.28,30.18,8,0,8,0.00
2013-2-2,57.7,47.5,37.9,46.6,38.6,33.1,83,71,63,30.22,30.16,8,0,8,0.00
2013-2-3,49.8,42.1,34.7,43.3,37.8,30.9,88,85,77,30.26,30.14,4,0,4,0.00
2013-2-4,55.4,44.5,38.1,45.1,38.9,34.5,88,81,64,30.15,29.85,6,0,6,0.00
2013-2-5,50.0,42.9,39.4,44.7,38.9,35.6,89,86,73,29.97,29.85,12,1,12,0.45
2013-2-6,51.5,43.5,37.8,44.3,38.5,34.8,90,83,69,30.02,29.76,10,1,10,0.06
2013-2-7,50.2,39.0,32.4,41.3,34.3,29.1,89,84,67,30.04,29.85,9,0,9,0.10
2013-2-8,38.7,34.2,28.8,35.0,30.8,25.7,90,87,84,30.18,30.04,4,0,4,0.00
2013-2-9,43.5,38.5,34.5,39.0,34.8,31.0,88,86,83,30.21,30.16,4,0,4,0.04
2013-2-10,44.1,39.9,37.8,40.7,36.6,34.7,90,88,86,30.25,30.20,3,0,3,0.00
2013-2-11,44.6,40.2,37.1,40.5,36.8,33.8,90,88,84,30.30,30.21,4,0,4,0.06
2013-2-12,55.2,45.6,41.9,48.8,42.1,39.1,91,88,75,30.38,30.29,11,1,11,0.10
2013-2-13,51.6,45.9,41.9,46.5,42.1,38.6,90,87,79,30.42,30.34,9,1,9,0.00
2013-2-14,53.8,45.1,38.3,46.1,40.6,34.8,90,84,73,30.49,30.41,5,0,5,0.00
2013-2-15,67.1,45.8,34.0,53.6,40.6,31.1,91,83,59,30.42,30.11,5,0,5,0.02
2013-2-16,50.2,42.7,36.5,45.5,38.5,32.1,89,85,79,30.19,30.12,9,1,9,0.13
2013-2-17,45.9,38.1,33.8,40.7,33.6,29.2,90,84,73,30.21,29.99,4,0,4,0.02
2013-2-18,49.1,39.1,32.4,38.7,32.8,28.4,86,78,65,30.00,29.65,6,0,6,0.00
2013-2-19,54.9,39.6,32.7,40.1,33.0,29.1,88,78,53,29.91,29.59,7,0,7,0.02
2013-2-20,48.6,40.0,34.0,39.4,34.5,30.4,88,81,65,29.99,29.91,11,1,11,0.10
2013-2-21,41.4,39.0,37.2,36.9,35.0,33.9,88,86,81,30.11,29.99,12,2,12,0.08
2013-2-22,42.8,40.2,35.4,38.9,36.5,32.2,89,87,81,30.08,29.80,14,3,16,0.47
2013-2-23,46.1,36.4,33.5,41.0,33.1,30.6,90,88,81,30.34,29.97,12,2,14,0.14
2013-2-24,53.8,40.6,32.9,41.8,34.9,30.0,90,81,60,30.34,30.03,5,0,5,0.00
2013-2-25,48.2,39.7,36.5,43.3,35.7,32.2,89,85,76,30.29,29.93,15,3,15,0.41
2013-2-26,48.2,40.2,32.4,37.9,34.1,28.9,88,79,66,30.29,30.15,8,0,8,0.00
2013-2-27,54.3,44.6,39.0,42.8,37.9,33.3,88,77,63,30.22,30.13,7,0,7,0.04
2013-2-28,55.4,49.0,43.2,51.0,45.3,39.9,89,87,83,30.37,30.11,11,1,11,0.10
2013-3-1,63.0,53.4,48.9,53.1,48.1,44.5,89,82,67,30.38,30.24,6,0,6,0.02
2013-3-2,54.5,47.2,39.6,48.3,42.7,36.6,89,85,78,30.25,30.08,8,0,8,0.33
2013-3-3,51.6,39.0,32.4,40.9,33.6,27.8,90,81,62,30.24,30.15,4,0,4,0.02
2013-3-4,62.3,43.9,28.8,36.1,29.2,24.0,83,59,37,30.16,29.82,12,1,12,0.00
2013-3-5,51.5,42.1,37.8,43.6,33.5,24.7,88,72,54,29.83,29.54,6,0,6,0.22
2013-3-6,41.4,39.6,38.3,38.4,36.3,35.0,89,88,86,29.88,29.44,10,1,10,0.39
2013-3-7,57.8,42.6,34.4,43.8,34.9,31.0,88,75,51,29.96,29.88,8,1,8,0.00
2013-3-8,59.9,42.8,32.4,43.6,34.2,28.0,85,73,48,30.12,29.92,9,1,9,0.00
2013-3-9,62.1,43.7,31.8,44.6,33.9,26.6,83,70,45,30.41,30.12,7,1,7,0.00
2013-3-10,52.5,44.3,37.4,41.6,36.3,29.3,86,74,60,30.41,30.32,6,0,6,0.02
2013-3-11,51.3,47.9,44.6,47.5,44.3,40.7,89,87,86,30.34,30.16,0,0,0,0.06
2013-3-12,57.2,49.8,45.3,50.5,45.9,42.2,90,86,77,30.17,30.09,7,0,7,0.02
2013-3-13,66.6,53.4,45.5,53.1,46.5,42.1,88,78,58,30.17,30.02,6,0,6,0.00
2013-3-14,63.5,53.3,47.3,51.4,45.6,41.8,84,76,59,30.14,29.98,10,1,10,0.00
2013-3-15,64.4,53.8,47.3,50.7,46.1,42.4,86,76,57,30.16,30.09,9,1,9,0.00
2013-3-16,50.0,44.4,36.5,44.5,40.1,33.3,89,85,79,30.10,29.90,15,3,21,0.53
2013-3-17,48.2,39.1,34.4,37.6,33.7,30.9,89,81,65,30.20,30.04,11,2,11,0.02
2013-3-18,58.5,42.0,32.7,42.4,33.8,28.9,87,74,49,30.20,30.06,7,0,7,0.00
2013-3-19,56.5,45.8,34.5,43.0,35.7,29.1,88,69,49,30.06,29.60,9,1,9,0.31
2013-3-20,52.0,44.9,36.3,47.2,40.6,31.6,89,85,77,30.07,29.46,17,4,17,0.49
2013-3-21,45.3,37.6,34.4,40.1,33.4,30.6,88,85,81,30.18,30.06,14,2,14,0.00
2013-3-22,45.5,38.3,31.8,38.1,32.8,28.1,88,81,73,30.29,30.19,13,0,13,0.00
2013-3-23,53.3,39.4,31.8,37.2,31.3,26.3,87,74,51,30.28,30.16,7,0,7,0.00
2013-3-24,61.7,45.8,32.4,40.8,33.9,27.2,83,65,44,30.16,29.98,8,1,8,0.00
2013-3-25,63.9,50.3,41.2,42.1,35.5,29.7,74,58,43,29.99,29.83,8,1,8,0.00
2013-3-26,55.1,46.1,40.7,45.9,39.4,33.4,86,77,68,29.95,29.88,6,0,6,0.02
2013-3-27,68.9,51.3,40.7,49.2,43.0,37.4,88,75,47,29.93,29.83,8,1,8,0.14
2013-3-28,71.3,53.6,44.1,52.3,45.1,40.5,88,74,47,30.07,29.92,7,1,7,0.00
2013-3-29,72.3,56.4,46.8,53.9,47.4,42.8,86,73,50,30.12,30.06,8,0,8,0.00
2013-3-30,80.8,60.7,44.6,57.1,48.2,39.5,84,66,40,30.11,29.90,11,1,11,0.00
2013-3-31,77.4,60.6,46.8,53.8,46.2,37.3,74,59,43,29.94,29.85,9,1,9,0.00
2013-4-1,64.8,56.1,52.0,52.1,48.1,45.8,82,75,62,30.08,29.93,10,0,10,0.00
2013-4-2,66.6,55.1,46.8,52.9,47.0,41.4,86,75,56,30.14,30.05,7,1,7,0.00
2013-4-3,68.4,54.7,40.5,53.4,46.3,36.8,88,74,55,30.09,29.84,6,0,6,0.00
2013-4-4,59.9,54.5,50.9,54.3,48.5,44.0,86,80,71,29.85,29.64,11,1,11,0.08
2013-4-5,57.6,51.3,46.6,49.3,45.5,43.2,88,81,70,29.89,29.76,15,2,15,0.00
2013-4-6,54.0,46.3,41.0,47.4,42.4,37.7,89,86,76,29.95,29.65,16,2,16,0.09
2013-4-7,48.9,43.6,39.0,45.8,40.1,36.0,90,88,83,29.88,29.51,28,4,28,0.06
2013-4-8,51.6,42.9,38.1,45.5,39.3,35.1,90,87,78,30.21,29.88,8,1,8,0.02
2013-4-9,59.4,48.6,37.6,48.5,42.6,34.6,90,80,65,30.29,30.17,5,0,5,0.00
2013-4-10,60.3,51.1,44.1,52.9,44.7,37.0,86,78,68,30.26,30.04,26,2,26,0.02
2013-4-11,58.1,46.6,36.5,44.2,38.7,32.1,86,74,58,30.26,30.10,8,0,8,0.00
2013-4-12,59.4,46.5,34.9,45.1,38.8,31.0,88,75,57,30.10,29.78,13,1,13,0.04
2013-4-13,50.7,42.5,35.8,41.3,35.8,32.6,89,78,60,30.01,29.82,18,3,18,0.00
2013-4-14,51.3,41.0,37.8,43.9,36.0,33.3,87,82,73,30.01,29.85,9,1,9,0.04
2013-4-15,58.1,44.6,37.4,42.8,36.4,32.6,89,74,48,30.09,29.85,7,0,7,0.00
2013-4-16,61.0,46.9,38.1,45.2,37.6,31.8,86,71,49,30.31,30.08,8,1,8,0.00
2013-4-17,63.5,47.7,35.1,46.0,37.1,30.1,83,68,45,30.41,30.31,8,1,8,0.00
2013-4-18,62.4,51.6,42.3,47.1,42.0,36.8,83,71,54,30.40,30.25,8,0,8,0.02
2013-4-19,52.5,49.0,46.8,48.9,45.0,42.8,89,86,83,30.25,30.08,15,2,15,0.02
2013-4-20,59.9,51.0,45.3,47.1,43.0,39.0,88,75,58,30.27,30.18,11,2,11,0.00
2013-4-21,55.8,47.8,41.7,45.5,41.1,36.9,83,77,67,30.23,30.16,8,1,8,0.00
2013-4-22,68.7,50.7,35.8,48.4,36.5,28.2,89,63,35,30.33,30.23,7,0,7,0.00
2013-4-23,69.8,52.5,36.2,42.2,33.4,25.0,64,50,31,30.30,30.08,12,1,12,0.00
2013-4-24,79.2,58.7,40.7,44.9,35.4,25.1,61,44,27,30.17,29.95,8,1,8,0.00
2013-4-25,78.6,58.9,43.5,46.8,40.7,34.1,71,53,32,30.09,29.95,6,0,6,0.00
2013-4-26,79.7,61.5,44.1,54.5,43.3,36.4,78,54,32,30.17,30.08,6,1,6,0.00
2013-4-27,75.8,60.2,47.7,47.5,41.4,36.6,70,52,31,30.19,30.11,14,1,14,0.00
2013-4-28,69.8,55.9,47.3,49.3,44.1,40.4,85,66,44,30.19,30.01,14,2,14,0.00
2013-4-29,62.3,49.9,37.4,47.8,39.5,27.5,87,69,46,30.14,29.99,13,2,13,0.00
2013-4-30,58.7,46.1,36.0,41.4,34.3,27.7,79,64,47,30.36,30.14,7,1,8,0.00
2013-5-1,72.3,51.3,31.1,46.2,36.0,26.0,83,59,34,30.42,30.36,7,1,7,0.00
2013-5-2,82.6,65.5,49.5,47.7,38.6,29.9,54,38,27,30.37,30.18,11,1,11,0.00
2013-5-3,81.7,61.2,41.7,53.8,43.1,32.9,75,53,36,30.23,30.06,7,0,7,0.00
2013-5-4,82.8,66.0,46.1,50.1,41.6,34.5,72,45,26,30.06,29.84,17,1,17,0.00
2013-5-5,87.3,68.3,49.7,49.0,41.1,33.8,56,39,25,29.84,29.65,12,1,12,0.00
2013-5-6,81.9,65.7,49.7,56.8,47.7,38.0,68,53,41,29.82,29.71,8,0,8,0.00
2013-5-7,77.9,61.5,46.6,57.1,49.1,41.7,84,65,46,29.95,29.81,8,1,8,0.00
2013-5-8,69.6,56.2,43.7,55.1,47.6,39.2,85,73,58,30.08,29.96,6,0,6,0.00
2013-5-9,78.3,61.7,47.1,59.7,50.6,43.0,87,69,48,30.11,30.02,7,1,7,0.00
2013-5-10,85.3,68.1,50.9,60.5,52.0,42.6,74,58,37,30.14,30.05,7,0,7,0.00
2013-5-11,86.7,70.1,55.2,63.3,55.4,47.1,77,61,44,30.12,29.96,6,0,6,0.00
2013-5-12,77.9,64.0,56.3,63.6,55.9,50.3,85,75,60,30.08,29.99,8,0,8,0.00
2013-5-13,69.8,56.9,50.0,61.7,51.1,43.1,88,81,66,30.15,29.97,14,1,14,0.00
2013-5-14,70.2,55.4,41.9,50.8,43.0,37.1,87,66,42,30.15,30.03,8,1,8,0.00
2013-5-15,59.4,52.0,46.4,51.4,43.6,36.8,88,73,63,30.04,29.95,3,0,4,0.00
2013-5-16,66.9,54.7,50.0,57.8,49.9,46.3,88,84,69,29.96,29.86,7,0,7,0.00
2013-5-17,66.9,55.4,45.9,54.5,47.7,42.5,89,76,55,30.03,29.92,11,1,11,0.00
2013-5-18,59.9,51.8,48.4,50.6,46.7,43.2,89,83,70,30.20,30.03,8,0,8,0.00
2013-5-19,63.2,53.2,46.6,56.5,48.3,41.9,90,84,67,30.34,30.20,5,0,5,0.00
2013-5-20,71.6,54.4,40.3,56.2,46.1,37.0,89,75,54,30.27,29.84,7,0,7,0.00
2013-5-21,64.8,47.6,39.9,51.4,40.9,36.2,87,78,54,29.90,29.74,11,2,11,0.00
2013-5-22,45.0,42.2,39.4,40.8,38.4,35.8,89,86,83,29.90,29.85,8,1,8,0.00
2013-5-23,55.2,46.2,41.9,49.9,42.5,38.9,90,87,76,29.95,29.89,8,0,8,0.00
2013-5-24,62.3,52.6,43.5,49.1,45.3,40.4,89,77,61,30.02,29.93,11,2,11,0.00
2013-5-25,70.2,57.1,46.8,54.5,48.0,43.1,88,73,54,30.00,29.85,7,0,7,0.00
2013-5-26,65.3,56.3,48.0,55.4,49.1,42.8,89,77,64,29.97,29.86,12,1,12,0.00
2013-5-27,65.7,53.1,47.7,61.4,49.2,42.8,90,87,80,29.93,29.69,10,1,10,0.00
2013-5-28,64.6,55.1,48.8,55.1,48.8,44.6,90,80,63,29.88,29.70,12,1,12,0.00
2013-5-29,60.5,52.5,46.2,56.3,48.1,41.8,89,85,78,30.00,29.58,14,2,14,0.00
2013-5-30,67.1,54.3,46.1,53.1,46.6,42.4,88,76,58,30.18,29.99,10,1,10,0.00
2013-5-31,72.9,58.3,47.1,55.9,47.8,43.2,88,70,48,30.25,30.16,8,0,8,0.00
2013-6-1,78.6,62.5,48.0,57.4,50.4,42.5,82,66,45,30.17,29.95,15,1,15,0.00
2013-6-2,72.5,60.3,50.7,57.1,50.2,44.1,82,70,53,30.02,29.95,7,0,7,0.00
2013-6-3,74.9,59.3,49.1,58.9,49.8,43.4,86,72,52,30.05,29.97,7,0,7,0.00
2013-6-4,84.6,64.3,44.6,62.9,52.1,39.8,86,67,46,30.01,29.91,8,0,8,0.00
2013-6-5,84.6,69.4,54.0,62.9,55.3,48.0,81,63,36,30.01,29.92,8,0,8,0.00
2013-6-6,83.3,67.6,52.7,64.2,55.2,45.2,87,66,45,29.99,29.93,7,0,7,0.00
2013-6-7,83.3,66.0,50.9,56.1,50.0,43.5,79,59,34,30.08,29.98,7,0,7,0.00
2013-6-8,79.9,62.8,47.3,56.6,48.9,41.8,85,64,37,30.11,29.98,8,0,8,0.00
2013-6-9,74.3,58.7,45.5,55.8,47.2,39.4,82,67,47,30.05,29.91,8,0,8,0.00
2013-6-10,72.5,57.4,43.7,53.1,45.3,37.0,79,65,47,29.96,29.82,9,1,9,0.00
2013-6-11,68.6,56.5,49.1,50.3,44.9,40.9,76,66,49,30.07,29.91,14,1,14,0.00
2013-6-12,67.8,56.3,49.7,53.3,47.0,43.2,83,71,51,30.11,30.06,10,0,10,0.00
2013-6-13,64.2,54.5,47.7,54.8,48.1,43.3,87,79,67,30.22,30.09,15,2,15,0.00
2013-6-14,73.2,59.7,49.3,56.5,49.6,45.0,86,71,52,30.22,29.91,9,0,9,0.00
2013-6-15,81.9,63.5,45.0,61.6,51.5,40.4,88,67,44,29.94,29.85,7,1,7,0.00
2013-6-16,76.1,63.0,48.9,59.4,52.1,43.9,85,69,51,30.04,29.94,2,0,2,0.00
2013-6-17,81.3,65.2,50.9,59.8,52.1,45.0,82,64,43,30.04,29.88,11,1,11,0.00
2013-6-18,74.3,60.7,51.5,54.4,48.9,45.9,85,67,43,29.95,29.86,12,1,12,0.00
2013-6-19,69.3,54.6,48.2,56.4,49.1,44.2,87,82,61,30.03,29.88,8,1,8,0.00
2013-6-20,66.8,57.1,49.7,55.3,49.6,45.7,87,77,61,30.08,29.99,13,2,13,0.00
2013-6-21,74.3,60.2,50.9,56.5,50.8,45.2,89,73,51,30.11,30.05,5,0,5,0.00
2013-6-22,81.3,65.3,49.5,59.7,51.7,44.1,83,64,43,30.06,29.79,8,0,8,0.00
2013-6-23,72.5,63.2,57.9,63.4,56.2,51.2,88,78,67,29.79,29.59,5,0,5,0.00
2013-6-24,71.1,60.1,53.4,59.7,53.5,50.1,90,79,61,29.66,29.59,12,1,12,0.00
2013-6-25,68.7,59.7,56.0,63.4,55.3,51.7,88,85,80,29.83,29.63,9,0,9,0.00
2013-6-26,73.8,62.4,55.8,63.7,56.7,52.9,90,82,62,30.00,29.81,6,0,6,0.00
2013-6-27,85.5,70.7,59.9,67.3,60.4,54.1,83,71,53,30.11,29.95,7,0,7,0.00
2013-6-28,91.4,74.7,58.7,71.7,62.9,54.8,90,69,48,30.08,29.98,7,0,7,0.00
2013-6-29,89.1,74.5,60.5,66.7,60.9,54.8,83,64,45,30.05,29.92,8,0,8,0.00
2013-6-30,95.2,78.0,59.2,72.2,62.8,51.3,79,61,46,29.94,29.80,6,0,6,0.00
2013-7-1,91.4,72.2,64.2,71.5,63.3,58.8,84,74,52,29.95,29.85,0,0,0,0.00
2013-7-2,89.6,74.2,60.3,71.4,61.7,54.5,86,66,48,30.02,29.95,6,0,6,0.00
2013-7-3,85.1,68.1,54.3,61.2,53.3,45.9,84,62,36,30.08,29.97,7,0,7,0.00
2013-7-4,77.6,62.9,49.5,58.3,50.7,43.3,84,65,49,30.09,29.96,7,0,7,0.00
2013-7-5,73.4,61.3,54.3,56.2,50.8,47.2,79,69,53,30.00,29.89,5,0,5,0.00
2013-7-6,75.2,61.6,51.6,59.1,52.5,46.1,83,73,55,29.92,29.80,6,0,6,0.00
2013-7-7,75.4,62.4,50.2,61.3,54.3,45.7,86,75,60,29.90,29.82,5,0,5,0.00
2013-7-8,81.3,65.3,53.1,62.3,55.1,47.8,86,71,48,30.02,29.90,6,0,7,0.00
2013-7-9,88.7,71.7,55.8,66.7,56.5,46.9,75,60,42,30.02,29.93,5,0,5,0.00
2013-7-10,83.3,66.7,51.6,62.3,53.6,43.6,84,64,45,30.00,29.88,8,0,8,0.00
2013-7-11,75.9,62.4,45.9,54.0,47.9,39.4,81,61,43,30.03,29.89,7,0,7,0.00
2013-7-12,78.1,60.0,44.6,57.7,48.0,39.5,84,66,46,30.04,29.93,7,0,7,0.00
2013-7-13,81.5,63.0,45.2,57.9,49.4,40.3,86,64,39,30.09,29.96,6,0,6,0.00
2013-7-14,86.7,67.9,49.7,62.6,51.3,43.8,82,58,34,30.02,29.91,7,0,7,0.00
2013-7-15,86.6,67.6,48.2,61.2,51.5,41.4,79,58,39,29.95,29.77,8,0,8,0.00
2013-7-16,94.7,74.8,57.0,64.2,54.9,48.6,76,52,29,29.92,29.71,10,0,10,0.00
2013-7-17,80.1,65.8,56.9,60.8,54.3,50.6,81,67,48,30.10,29.92,5,0,5,0.00
2013-7-18,83.9,62.8,51.3,63.7,52.7,46.6,87,71,41,30.14,30.02,9,0,9,0.00
2013-7-19,81.7,63.5,49.1,63.1,52.5,41.9,79,68,51,30.08,29.95,4,0,4,0.00
2013-7-20,77.2,62.9,52.4,62.3,54.7,47.1,85,75,59,30.01,29.89,6,0,6,0.00
2013-7-21,82.8,65.5,49.7,63.7,55.0,45.1,87,70,51,29.92,29.84,7,0,7,0.00
2013-7-22,84.6,66.7,54.2,62.7,55.1,48.8,86,68,43,29.98,29.88,5,0,5,0.00
2013-7-23,87.8,65.5,53.1,64.2,51.9,42.7,72,62,42,29.98,29.90,6,0,6,0.00
2013-7-24,89.4,72.3,55.1,64.9,56.9,47.8,78,61,37,29.96,29.92,3,0,3,0.00
2013-7-25,90.7,69.9,54.0,63.0,55.6,45.4,77,62,35,30.02,29.94,6,1,6,0.00
2013-7-26,88.4,67.7,52.7,62.1,49.9,43.5,75,55,34,30.09,29.99,8,0,8,0.00
2013-7-27,81.7,63.0,49.8,56.6,48.6,41.6,81,61,38,30.12,29.94,7,0,7,0.00
2013-7-28,76.3,60.8,47.3,56.3,49.3,41.5,84,67,47,30.00,29.90,8,0,8,0.00
2013-7-29,80.6,63.6,51.8,57.8,51.6,44.9,79,66,44,29.96,29.88,7,0,7,0.00
2013-7-30,82.8,63.4,50.4,62.7,52.5,45.1,85,69,46,30.07,29.96,6,0,6,0.00
2013-7-31,76.7,67.0,54.0,62.4,57.2,48.3,83,71,58,30.04,29.95,5,0,5,0.00
2013-8-1,63.5,59.1,55.4,56.3,53.6,50.3,86,82,73,30.05,29.98,11,1,11,0.02
2013-8-2,73.6,62.7,56.1,59.3,54.2,51.7,85,74,59,30.08,30.03,5,0,5,0.00
2013-8-3,82.4,68.4,50.9,63.8,56.6,46.2,86,67,50,30.04,29.92,7,1,7,0.00
2013-8-4,89.6,71.7,54.0,66.8,58.2,49.3,86,64,44,29.96,29.85,8,0,8,0.00
2013-8-5,90.0,74.1,57.0,67.0,59.3,51.6,84,62,41,29.95,29.86,7,1,7,0.00
2013-8-6,92.7,75.4,54.7,63.9,55.4,48.3,79,53,32,29.93,29.86,7,1,7,0.00
2013-8-7,89.6,75.4,57.4,60.3,54.5,45.2,67,49,36,29.97,29.89,8,1,8,0.00
2013-8-8,83.9,69.5,57.0,62.3,56.5,49.6,77,64,47,29.98,29.86,8,0,8,0.00
2013-8-9,84.4,70.5,57.0,64.8,58.4,49.9,83,66,50,29.89,29.80,8,0,8,0.02
2013-8-10,84.2,68.9,58.8,66.2,60.3,53.7,84,75,53,29.98,29.85,8,0,8,0.02
2013-8-11,77.2,65.1,57.6,63.2,57.4,52.2,87,77,61,30.01,29.92,6,0,6,0.00
2013-8-12,78.3,65.4,53.3,63.4,56.4,49.2,87,73,57,30.01,29.94,6,0,6,0.00
2013-8-13,87.5,68.3,51.3,63.0,54.1,46.9,89,63,40,30.03,29.87,6,0,7,0.00
2013-8-14,87.3,72.5,59.9,63.4,56.5,51.3,77,59,40,29.91,29.87,7,0,7,0.00
2013-8-15,84.6,72.1,63.0,65.2,59.4,52.7,78,64,50,29.92,29.88,6,0,6,0.00
2013-8-16,85.1,71.7,62.4,69.5,62.0,55.0,87,72,55,29.98,29.90,5,0,5,0.00
2013-8-17,86.9,70.2,56.3,62.7,56.9,51.2,85,64,43,30.03,29.95,8,1,8,0.00
2013-8-18,86.4,69.0,56.1,63.8,56.8,51.0,85,67,41,30.07,29.98,7,0,7,0.00
2013-8-19,87.6,69.7,55.1,63.0,55.9,50.0,88,64,38,30.06,29.97,8,0,8,0.00
2013-8-20,84.9,66.7,54.0,60.1,53.5,47.0,79,64,40,30.06,29.93,7,0,7,0.00
2013-8-21,93.2,70.7,50.7,63.0,54.1,44.0,79,58,35,29.94,29.80,8,0,8,0.00
2013-8-22,86.2,69.6,57.6,63.3,55.3,46.1,82,61,44,29.84,29.79,4,0,4,0.00
2013-8-23,73.2,63.0,58.1,61.4,56.4,53.1,87,79,62,29.89,29.82,6,0,6,0.02
2013-8-24,78.5,65.5,58.1,61.3,55.3,49.0,84,70,50,29.85,29.78,5,0,5,0.00
2013-8-25,69.3,60.5,53.1,63.0,54.6,48.0,87,81,71,29.88,29.82,4,0,4,0.12
2013-8-26,82.2,66.6,58.1,63.6,56.1,49.1,89,71,44,29.92,29.84,8,1,8,0.00
2013-8-27,87.6,70.8,56.5,64.1,56.4,49.0,77,61,44,29.91,29.74,8,1,8,0.00
2013-8-28,85.5,71.3,59.4,65.9,59.1,53.9,86,66,48,29.85,29.77,7,0,7,0.02
2013-8-29,80.3,68.5,63.0,69.1,60.9,57.3,87,77,56,30.03,29.77,10,1,10,0.09
2013-8-30,85.5,69.5,61.5,65.9,60.0,54.5,89,73,50,30.10,29.98,7,0,7,0.00
2013-8-31,91.4,71.3,54.3,66.5,58.8,49.9,88,67,43,29.99,29.78,5,0,6,0.00
2013-9-1,86.0,69.8,56.7,63.9,56.5,51.1,83,64,46,29.85,29.75,6,0,6,0.00
2013-9-2,85.3,71.0,62.1,63.9,56.7,51.2,72,61,48,29.87,29.82,6,0,7,0.00
2013-9-3,81.0,67.5,57.6,64.2,57.2,52.6,86,70,53,29.93,29.86,6,0,6,0.04
2013-9-4,75.8,65.6,56.7,60.9,56.8,51.5,84,74,59,29.99,29.92,0,0,0,0.00
2013-9-5,65.3,61.3,56.5,60.7,56.8,53.0,88,85,82,29.98,29.89,7,0,7,0.10
2013-9-6,67.5,60.4,55.8,62.9,56.3,52.2,90,86,78,30.07,29.97,14,2,14,0.10
2013-9-7,66.2,55.3,51.5,60.1,51.6,48.0,89,87,78,30.04,29.98,7,0,7,0.00
2013-9-20,61.5,61.5,61.5,48.8,48.8,48.8,63,63,63,29.62,29.62,0,0,0,0.00
2013-9-21,63.0,57.6,52.2,57.3,52.5,48.2,88,83,75,29.72,29.64,0,0,0,0.07
2013-9-22,63.1,54.0,50.9,53.3,49.3,46.7,89,85,65,29.80,29.62,0,0,0,0.04
2013-9-23,62.2,53.6,50.4,56.8,49.8,47.0,89,87,80,29.93,29.80,1,0,1,0.00
2013-9-24,61.0,50.5,46.0,53.2,46.9,42.9,90,88,74,29.92,29.78,0,0,0,0.00
2013-9-25,55.8,49.0,45.7,51.4,45.7,43.0,90,88,83,29.96,29.78,0,0,0,0.00
2013-9-26,64.8,52.3,47.7,53.1,46.8,42.8,90,82,63,30.10,29.96,0,0,0,0.00
2013-9-27,57.7,51.3,45.3,51.3,46.7,41.1,89,84,74,30.10,29.85,0,0,0,0.14
2013-9-28,65.8,56.8,48.2,55.2,51.9,45.0,90,84,67,29.86,29.45,24,3,24,0.35
2013-9-29,57.7,51.4,48.6,52.3,47.7,45.5,90,87,82,29.64,29.32,20,3,20,0.20
2013-9-30,58.8,50.0,45.7,51.3,45.5,41.5,89,85,74,29.93,29.56,9,2,12,0.00
2013-10-1,57.7,47.6,42.4,52.6,43.8,39.1,90,87,76,30.13,29.91,8,0,8,0.00
2013-10-2,56.5,45.6,41.2,48.3,41.5,37.9,89,85,73,30.12,30.00,7,0,7,0.00
2013-10-3,53.8,46.0,40.8,49.4,42.1,37.2,90,86,76,30.34,30.10,3,0,3,0.00
2013-10-4,68.9,49.5,36.5,55.7,42.8,33.2,89,79,59,30.37,30.25,4,0,4,0.00
2013-10-5,74.5,54.8,40.6,54.1,43.7,33.8,79,67,46,30.26,30.07,5,0,5,0.00
2013-10-6,77.4,57.5,46.9,56.0,44.6,37.3,76,63,39,30.07,29.90,7,0,7,0.00
2013-10-7,60.4,50.9,46.9,50.9,44.8,40.3,88,80,68,30.07,29.90,11,1,11,0.00
2013-10-8,51.1,46.5,39.7,47.9,43.2,36.6,89,88,86,30.07,29.90,8,0,8,0.00
2013-10-9,60.4,44.1,32.7,53.0,39.8,29.8,90,85,68,30.02,29.90,1,0,1,0.00
2013-10-10,60.1,49.7,41.7,49.0,43.2,37.5,86,79,62,30.01,29.87,5,0,5,0.00
2013-10-11,57.0,50.0,45.0,49.4,44.5,40.3,88,82,70,30.07,30.00,2,0,2,0.00
2013-10-12,55.9,47.0,41.5,48.1,42.2,37.8,87,83,73,30.09,29.98,4,0,4,0.00
2013-10-13,63.3,46.1,36.3,52.8,40.6,32.8,89,82,58,30.22,30.08,3,0,3,0.00
2013-10-14,69.6,50.1,39.4,52.8,41.7,34.9,87,74,51,30.27,30.21,5,0,5,0.00
2013-10-15,73.8,52.3,41.5,48.6,38.8,32.7,73,62,40,30.26,30.04,5,0,5,0.00
2013-10-16,68.0,50.8,41.7,48.4,40.5,34.0,79,69,48,30.08,30.02,3,0,3,0.00
2013-10-17,70.2,51.1,39.0,53.5,42.1,34.3,85,73,51,30.14,30.07,5,0,5,0.00
2013-10-18,77.7,58.1,46.6,52.0,40.9,35.7,70,54,39,30.09,30.00,8,0,8,0.00
2013-10-19,72.7,54.2,45.1,51.6,41.9,34.6,72,64,46,30.07,30.02,5,0,5,0.00
2013-10-20,68.9,52.3,42.4,51.4,42.1,34.4,80,69,53,30.06,29.98,3,0,3,0.00
2013-10-21,79.5,59.5,46.6,59.8,47.4,38.9,78,65,46,30.00,29.92,6,0,6,0.00
2013-10-22,79.7,64.4,54.1,56.8,46.8,41.7,70,54,44,29.96,29.89,6,0,6,0.00
2013-10-23,76.6,56.8,47.8,57.4,46.7,40.0,80,70,50,29.93,29.87,3,0,3,0.00
2013-10-24,71.2,54.2,46.2,55.7,46.4,40.3,85,75,57,30.02,29.91,2,0,2,0.00
2013-10-25,51.6,48.0,43.5,47.5,44.2,39.9,88,86,85,30.19,30.01,0,0,0,0.00
2013-10-26,52.2,47.3,43.5,48.2,43.8,40.5,89,87,85,30.21,30.06,0,0,0,0.00
2013-10-27,50.9,45.9,43.3,48.0,42.8,40.3,90,89,88,30.09,29.75,10,0,10,0.20
2013-10-28,58.1,44.3,37.0,42.3,36.5,28.5,90,75,48,29.84,29.73,8,0,8,0.00
2013-10-29,62.2,42.3,34.3,39.6,30.3,25.2,72,63,41,29.98,29.83,6,0,6,0.00
2013-10-30,59.7,45.2,36.3,43.6,35.1,29.0,77,68,50,30.12,29.97,2,0,2,0.00
2013-10-31,55.0,50.3,46.0,49.4,44.9,39.4,87,82,77,30.20,30.08,4,0,4,0.00
2013-11-1,64.8,50.5,43.3,52.9,44.5,39.4,87,80,62,30.20,29.83,4,0,4,0.02
2013-11-2,53.8,47.0,40.6,46.9,42.4,36.6,89,84,72,29.98,29.67,22,3,22,0.00
2013-11-3,48.0,42.3,39.0,41.4,37.8,35.5,88,84,75,30.07,29.97,11,1,11,0.00
2013-11-4,47.1,43.2,40.6,44.1,40.1,37.2,89,88,87,30.09,30.02,9,0,9,0.00
2013-11-5,51.1,47.7,43.2,48.3,44.9,40.2,91,90,89,30.16,30.00,7,0,7,0.00
2013-11-6,53.4,50.3,47.1,50.8,47.6,44.4,91,91,90,30.21,30.00,1,0,1,0.00
2013-11-7,52.5,48.4,45.0,49.9,45.5,41.1,91,90,85,30.04,29.81,16,3,16,0.41
2013-11-8,48.6,45.3,43.0,45.5,42.2,39.7,90,89,86,30.12,30.04,7,0,7,0.08
2013-11-9,50.5,45.9,38.5,45.2,41.9,35.5,90,86,82,30.02,29.94,0,0,0,0.00
2013-11-10,59.9,48.6,43.0,53.8,44.8,40.0,90,87,76,30.01,29.94,3,0,3,0.00
2013-11-11,59.5,50.8,41.9,45.8,40.5,37.6,89,69,53,30.06,29.92,8,1,8,0.00
2013-11-12,55.6,49.9,46.2,51.7,45.0,39.1,89,84,66,30.34,30.00,4,0,4,0.20
2013-11-13,56.8,47.1,38.1,53.0,43.9,35.1,90,88,84,30.40,30.20,3,0,3,0.00
2013-11-14,47.7,42.7,38.3,44.8,39.9,35.3,90,89,89,30.21,30.01,4,0,4,0.21
2013-11-15,44.6,41.7,39.6,41.7,38.7,36.9,90,89,86,30.02,29.46,18,2,18,0.20
2013-11-16,45.3,43.1,40.3,41.5,39.3,37.6,91,87,82,29.70,29.44,14,2,14,0.14
2013-11-17,54.0,47.3,42.1,45.7,41.5,38.2,89,80,72,29.91,29.76,8,1,8,0.02
2013-11-18,55.6,49.5,46.2,47.0,43.7,40.8,87,80,69,29.89,29.64,10,1,10,0.25
2013-11-19,51.8,44.5,32.5,47.0,41.4,29.5,90,89,82,29.93,29.63,8,1,8,0.92
2013-11-20,43.9,31.1,24.6,39.6,26.7,17.1,90,84,72,30.29,29.92,2,0,2,0.00
2013-11-21,51.2,33.8,24.6,30.5,19.1,14.0,72,55,41,30.45,30.28,6,0,6,0.00
2013-11-22,59.6,42.1,30.8,29.5,19.0,14.0,51,40,31,30.44,30.29,11,0,11,0.00
2013-11-23,57.5,46.6,38.2,30.4,22.0,16.2,45,38,33,30.30,30.04,10,1,10,0.00
2013-11-24,61.1,41.7,33.7,38.1,26.5,19.8,67,55,42,30.18,30.03,7,0,7,0.00
2013-11-25,56.8,41.4,34.6,38.7,29.4,23.7,77,63,46,30.23,30.17,5,0,5,0.00
2013-11-26,53.5,41.9,34.6,39.8,32.5,26.2,77,69,57,30.18,29.96,1,0,1,0.00
2013-11-27,56.6,44.1,36.8,42.1,33.2,28.1,74,65,56,29.95,29.86,3,0,3,0.00
2013-11-28,60.8,43.4,36.6,42.8,33.9,27.8,78,69,51,30.09,29.91,2,0,2,0.00
2013-11-29,50.0,41.7,35.8,40.7,35.1,29.5,86,77,70,30.26,30.09,1,0,1,0.00
2013-11-30,54.2,47.1,42.3,47.2,42.3,38.4,87,83,76,30.29,30.13,3,0,3,0.08
2013-12-1,54.0,52.0,46.1,51.1,48.9,42.1,90,89,86,30.13,29.83,24,7,24,1.57
2013-12-2,50.0,41.5,36.2,47.1,38.1,32.7,91,88,79,29.95,29.82,14,2,14,0.28
2013-12-3,41.4,33.2,23.9,37.8,27.7,18.2,89,80,62,30.16,29.94,8,0,8,0.02
2013-12-4,39.9,27.4,21.6,24.2,17.2,10.9,80,66,49,30.21,30.14,8,0,8,0.00
2013-12-5,34.5,25.8,21.6,20.4,13.8,9.5,73,60,54,30.17,30.02,8,0,8,0.00
2013-12-6,30.9,25.7,19.2,16.2,11.6,7.2,62,55,48,30.03,29.84,8,1,8,0.00
2013-12-7,31.5,19.8,14.7,12.8,5.7,0.5,66,54,43,30.28,29.95,8,0,8,0.00
2013-12-8,33.8,20.1,12.2,15.6,6.3,-0.2,66,55,45,30.45,30.27,6,0,6,0.00
2013-12-9,30.0,24.0,16.2,22.4,15.3,7.7,73,69,63,30.48,30.40,7,0,7,0.00
2013-12-10,37.8,32.1,27.5,30.4,26.1,20.7,85,78,73,30.42,30.27,1,0,1,0.00
2013-12-11,48.6,33.2,27.0,41.3,28.4,23.3,88,83,66,30.27,30.09,3,0,3,0.00
2013-12-12,47.0,37.1,29.0,40.7,32.4,24.8,88,83,74,30.12,30.01,6,0,6,0.11
2013-12-13,50.2,44.2,41.0,47.1,41.1,38.0,90,89,88,30.34,30.11,5,0,5,0.10
2013-12-14,47.1,40.3,35.6,43.7,37.2,32.6,90,89,86,30.37,30.27,6,0,6,0.02
2013-12-15,50.4,43.4,36.3,46.7,40.2,33.3,90,89,86,30.38,30.31,2,0,2,0.00
2013-12-16,54.5,40.8,32.4,51.0,37.5,29.2,90,88,83,30.37,30.14,2,0,2,0.00
2013-12-17,38.9,33.7,28.2,36.2,30.8,25.3,90,89,88,30.15,30.06,3,0,3,0.00
2013-12-18,42.8,38.0,32.7,40.0,35.2,30.0,91,90,90,30.08,29.94,3,0,3,0.10
2013-12-19,37.8,32.7,28.8,35.1,30.1,26.2,91,90,89,30.21,30.00,0,0,0,0.00
2013-12-20,47.0,37.2,30.6,44.5,34.6,28.0,91,90,90,30.12,29.77,15,2,15,0.16
2013-12-21,47.7,46.2,44.6,45.2,43.7,42.1,92,91,91,30.14,29.83,10,2,10,0.31
2013-12-22,52.0,47.4,44.6,49.5,44.9,42.1,92,91,91,30.28,30.14,8,0,8,0.08
2013-12-23,50.9,45.7,38.7,48.6,43.2,36.3,92,91,91,30.45,30.23,12,1,12,0.23
2013-12-24,48.0,37.4,30.8,45.5,35.0,28.2,92,91,90,30.52,30.36,4,0,4,0.02
2013-12-25,39.9,31.9,27.0,37.4,29.4,24.4,91,91,90,30.37,30.27,7,0,7,0.00
2013-12-26,41.9,30.9,26.1,39.4,28.5,23.5,91,91,90,30.29,30.11,3,0,3,0.00
2013-12-27,42.1,34.3,27.0,39.7,31.9,24.4,92,91,90,30.29,30.08,6,0,6,0.04
2013-12-28,44.1,40.4,35.1,41.9,38.0,32.7,92,91,91,30.39,30.28,2,0,2,0.00
2013-12-29,40.3,34.6,32.0,37.8,32.2,29.6,92,91,91,30.35,30.17,6,0,6,0.02
2013-12-30,43.2,38.6,33.6,41.0,36.3,31.2,92,91,91,30.19,30.06,7,0,7,0.00
2013-12-31,49.3,43.5,39.9,46.8,41.1,37.2,92,91,90,30.24,30.13,3,0,3,0.06
2014-1-1,52.4,41.0,36.0,49.2,38.3,33.0,92,90,87,30.26,30.14,3,0,3,0.00
2014-1-2,53.1,41.2,34.9,50.2,38.4,32.2,92,90,86,30.17,29.94,4,0,4,0.10